sensor_id;sensor_type;location;lat;lon;timestamp;temperature;humidity
47384;DHT22;33129;52.232;5.192;2022-10-31T00:00:42;16.90;1.00
47384;DHT22;33129;52.232;5.192;2022-10-31T00:03:08;16.90;1.00
47384;DHT22;33129;52.232;5.192;2022-10-31T00:05:34;17.10;1.00
47384;DHT22;33129;52.232;5.192;2022-10-31T00:08:00;17.10;1.00
47384;DHT22;33129;52.232;5.192;2022-10-31T00:10:26;16.70;1.00
47384;DHT22;33129;52.232;5.192;2022-10-31T00:12:52;16.80;1.00
47384;DHT22;33129;52.232;5.192;2022-10-31T00:15:18;17.00;1.00
47384;DHT22;33129;52.232;5.192;2022-10-31T00:17:43;17.30;1.00
47384;DHT22;33129;52.232;5.192;2022-10-31T00:20:09;17.20;1.00
47384;DHT22;33129;52.232;5.192;2022-10-31T00:22:35;17.00;1.00
47384;DHT22;33129;52.232;5.192;2022-10-31T00:25:01;17.00;1.00
47384;DHT22;33129;52.232;5.192;2022-10-31T00:27:27;17.40;1.00
47384;DHT22;33129;52.232;5.192;2022-10-31T00:29:53;17.10;1.00
47384;DHT22;33129;52.232;5.192;2022-10-31T00:32:19;17.10;1.00
47384;DHT22;33129;52.232;5.192;2022-10-31T00:34:44;17.10;1.00
47384;DHT22;33129;52.232;5.192;2022-10-31T00:37:10;17.40;1.00
47384;DHT22;33129;52.232;5.192;2022-10-31T00:39:36;17.30;1.00
47384;DHT22;33129;52.232;5.192;2022-10-31T00:42:02;16.70;1.00
47384;DHT22;33129;52.232;5.192;2022-10-31T00:44:27;17.00;1.00
47384;DHT22;33129;52.232;5.192;2022-10-31T00:46:53;16.50;1.00
47384;DHT22;33129;52.232;5.192;2022-10-31T00:49:19;16.80;1.00
47384;DHT22;33129;52.232;5.192;2022-10-31T00:51:45;16.90;1.00
47384;DHT22;33129;52.232;5.192;2022-10-31T00:54:10;16.70;1.00
47384;DHT22;33129;52.232;5.192;2022-10-31T00:56:37;17.20;1.00
47384;DHT22;33129;52.232;5.192;2022-10-31T00:59:02;16.50;1.00
47384;DHT22;33129;52.232;5.192;2022-10-31T01:01:28;16.60;1.00
47384;DHT22;33129;52.232;5.192;2022-10-31T01:03:54;16.70;1.00
47384;DHT22;33129;52.232;5.192;2022-10-31T01:06:19;16.50;1.00
47384;DHT22;33129;52.232;5.192;2022-10-31T01:08:47;16.90;1.00
47384;DHT22;33129;52.232;5.192;2022-10-31T01:11:20;16.80;1.00
47384;DHT22;33129;52.232;5.192;2022-10-31T01:13:49;16.40;1.00
47384;DHT22;33129;52.232;5.192;2022-10-31T01:16:18;16.60;1.00
47384;DHT22;33129;52.232;5.192;2022-10-31T01:18:46;16.80;1.00
47384;DHT22;33129;52.232;5.192;2022-10-31T01:21:16;16.70;1.00
47384;DHT22;33129;52.232;5.192;2022-10-31T01:23:47;17.00;1.00
47384;DHT22;33129;52.232;5.192;2022-10-31T01:26:15;16.20;1.00
47384;DHT22;33129;52.232;5.192;2022-10-31T01:28:53;16.80;1.00
47384;DHT22;33129;52.232;5.192;2022-10-31T01:31:23;16.60;1.00
47384;DHT22;33129;52.232;5.192;2022-10-31T01:33:50;16.90;1.00
47384;DHT22;33129;52.232;5.192;2022-10-31T01:36:17;16.50;1.00
47384;DHT22;33129;52.232;5.192;2022-10-31T01:38:48;16.70;1.00
47384;DHT22;33129;52.232;5.192;2022-10-31T01:41:20;16.70;1.00
47384;DHT22;33129;52.232;5.192;2022-10-31T01:43:56;16.90;1.00
47384;DHT22;33129;52.232;5.192;2022-10-31T01:46:58;16.20;1.00
47384;DHT22;33129;52.232;5.192;2022-10-31T01:49:40;16.20;1.00
47384;DHT22;33129;52.232;5.192;2022-10-31T01:52:25;16.70;1.00
47384;DHT22;33129;52.232;5.192;2022-10-31T01:54:59;16.70;1.00
47384;DHT22;33129;52.232;5.192;2022-10-31T01:57:29;16.70;1.00
47384;DHT22;33129;52.232;5.192;2022-10-31T02:00:00;16.60;1.00
47384;DHT22;33129;52.232;5.192;2022-10-31T02:02:30;16.50;1.00
47384;DHT22;33129;52.232;5.192;2022-10-31T02:04:58;16.70;1.00
47384;DHT22;33129;52.232;5.192;2022-10-31T02:07:27;16.60;1.00
47384;DHT22;33129;52.232;5.192;2022-10-31T02:09:58;16.50;1.00
47384;DHT22;33129;52.232;5.192;2022-10-31T02:12:26;16.50;1.00
47384;DHT22;33129;52.232;5.192;2022-10-31T02:14:52;16.70;1.00
47384;DHT22;33129;52.232;5.192;2022-10-31T02:17:18;16.60;1.00
47384;DHT22;33129;52.232;5.192;2022-10-31T02:19:51;16.70;1.00
47384;DHT22;33129;52.232;5.192;2022-10-31T02:22:45;16.50;1.00
47384;DHT22;33129;52.232;5.192;2022-10-31T02:28:49;16.20;1.00
47384;DHT22;33129;52.232;5.192;2022-10-31T02:34:17;16.40;1.00
47384;DHT22;33129;52.232;5.192;2022-10-31T02:40:17;16.40;1.00
47384;DHT22;33129;52.232;5.192;2022-10-31T02:43:06;16.30;1.00
47384;DHT22;33129;52.232;5.192;2022-10-31T02:45:55;16.20;1.00
47384;DHT22;33129;52.232;5.192;2022-10-31T02:48:27;15.70;1.00
47384;DHT22;33129;52.232;5.192;2022-10-31T02:50:59;15.80;1.00
47384;DHT22;33129;52.232;5.192;2022-10-31T02:53:26;15.70;1.00
47384;DHT22;33129;52.232;5.192;2022-10-31T02:56:17;15.90;1.00
47384;DHT22;33129;52.232;5.192;2022-10-31T02:59:00;15.60;1.00
47384;DHT22;33129;52.232;5.192;2022-10-31T03:04:46;15.70;1.00
47384;DHT22;33129;52.232;5.192;2022-10-31T03:07:57;16.00;1.00
47384;DHT22;33129;52.232;5.192;2022-10-31T03:10:40;15.80;1.00
47384;DHT22;33129;52.232;5.192;2022-10-31T03:13:20;15.70;1.00
47384;DHT22;33129;52.232;5.192;2022-10-31T03:16:26;15.60;1.00
47384;DHT22;33129;52.232;5.192;2022-10-31T03:21:36;14.90;1.00
47384;DHT22;33129;52.232;5.192;2022-10-31T03:24:06;15.30;1.00
47384;DHT22;33129;52.232;5.192;2022-10-31T03:26:36;15.50;1.00
47384;DHT22;33129;52.232;5.192;2022-10-31T03:29:09;15.40;1.00
47384;DHT22;33129;52.232;5.192;2022-10-31T03:31:41;15.30;1.00
47384;DHT22;33129;52.232;5.192;2022-10-31T03:34:11;15.20;1.00
47384;DHT22;33129;52.232;5.192;2022-10-31T03:36:39;15.30;1.00
47384;DHT22;33129;52.232;5.192;2022-10-31T03:39:08;15.50;1.00
47384;DHT22;33129;52.232;5.192;2022-10-31T03:41:41;15.50;1.00
47384;DHT22;33129;52.232;5.192;2022-10-31T03:44:10;14.80;1.00
47384;DHT22;33129;52.232;5.192;2022-10-31T03:46:38;15.20;1.00
47384;DHT22;33129;52.232;5.192;2022-10-31T03:49:05;14.70;1.00
47384;DHT22;33129;52.232;5.192;2022-10-31T03:51:50;15.20;1.00
47384;DHT22;33129;52.232;5.192;2022-10-31T03:54:51;14.80;1.00
47384;DHT22;33129;52.232;5.192;2022-10-31T03:57:27;15.00;1.00
47384;DHT22;33129;52.232;5.192;2022-10-31T04:02:32;14.80;1.00
47384;DHT22;33129;52.232;5.192;2022-10-31T04:04:59;14.70;1.00
47384;DHT22;33129;52.232;5.192;2022-10-31T04:07:29;14.80;1.00
47384;DHT22;33129;52.232;5.192;2022-10-31T04:09:57;14.60;1.00
47384;DHT22;33129;52.232;5.192;2022-10-31T04:12:27;14.60;1.00
47384;DHT22;33129;52.232;5.192;2022-10-31T04:14:55;14.80;1.00
47384;DHT22;33129;52.232;5.192;2022-10-31T04:17:23;14.60;1.00
47384;DHT22;33129;52.232;5.192;2022-10-31T04:19:51;14.70;1.00
47384;DHT22;33129;52.232;5.192;2022-10-31T04:22:16;14.80;1.00
47384;DHT22;33129;52.232;5.192;2022-10-31T04:24:42;14.40;1.00
47384;DHT22;33129;52.232;5.192;2022-10-31T04:27:08;14.50;1.00
47384;DHT22;33129;52.232;5.192;2022-10-31T04:29:34;14.50;1.00
47384;DHT22;33129;52.232;5.192;2022-10-31T04:32:00;14.50;1.00
47384;DHT22;33129;52.232;5.192;2022-10-31T04:34:26;14.40;1.00
47384;DHT22;33129;52.232;5.192;2022-10-31T04:36:52;14.30;1.00
47384;DHT22;33129;52.232;5.192;2022-10-31T04:39:17;14.20;1.00
47384;DHT22;33129;52.232;5.192;2022-10-31T04:41:43;14.60;1.00
47384;DHT22;33129;52.232;5.192;2022-10-31T04:44:09;14.40;1.00
47384;DHT22;33129;52.232;5.192;2022-10-31T04:46:35;14.40;1.00
47384;DHT22;33129;52.232;5.192;2022-10-31T04:49:00;14.40;1.00
47384;DHT22;33129;52.232;5.192;2022-10-31T04:51:26;14.20;1.00
47384;DHT22;33129;52.232;5.192;2022-10-31T04:53:52;14.30;1.00
47384;DHT22;33129;52.232;5.192;2022-10-31T04:56:18;13.80;1.00
47384;DHT22;33129;52.232;5.192;2022-10-31T04:58:44;14.20;1.00
47384;DHT22;33129;52.232;5.192;2022-10-31T05:01:10;14.30;1.00
47384;DHT22;33129;52.232;5.192;2022-10-31T05:03:36;14.00;1.00
47384;DHT22;33129;52.232;5.192;2022-10-31T05:06:05;14.30;1.00
47384;DHT22;33129;52.232;5.192;2022-10-31T05:08:31;14.10;1.00
47384;DHT22;33129;52.232;5.192;2022-10-31T05:11:01;14.30;1.00
47384;DHT22;33129;52.232;5.192;2022-10-31T05:13:28;14.20;1.00
47384;DHT22;33129;52.232;5.192;2022-10-31T05:15:54;13.90;1.00
47384;DHT22;33129;52.232;5.192;2022-10-31T05:18:20;14.40;1.00
47384;DHT22;33129;52.232;5.192;2022-10-31T05:20:46;14.30;1.00
47384;DHT22;33129;52.232;5.192;2022-10-31T05:23:12;14.00;1.00
47384;DHT22;33129;52.232;5.192;2022-10-31T05:25:39;14.00;1.00
47384;DHT22;33129;52.232;5.192;2022-10-31T05:28:06;14.20;1.00
47384;DHT22;33129;52.232;5.192;2022-10-31T05:30:33;14.00;1.00
47384;DHT22;33129;52.232;5.192;2022-10-31T05:33:00;14.00;1.00
47384;DHT22;33129;52.232;5.192;2022-10-31T05:35:29;14.10;1.00
47384;DHT22;33129;52.232;5.192;2022-10-31T05:37:56;14.00;1.00
47384;DHT22;33129;52.232;5.192;2022-10-31T05:40:23;13.60;1.00
47384;DHT22;33129;52.232;5.192;2022-10-31T05:42:55;13.70;1.00
47384;DHT22;33129;52.232;5.192;2022-10-31T05:45:22;13.90;1.00
47384;DHT22;33129;52.232;5.192;2022-10-31T05:47:58;13.70;1.00
47384;DHT22;33129;52.232;5.192;2022-10-31T05:50:26;13.70;1.00
47384;DHT22;33129;52.232;5.192;2022-10-31T05:53:02;13.80;1.00
47384;DHT22;33129;52.232;5.192;2022-10-31T05:55:30;13.70;1.00
47384;DHT22;33129;52.232;5.192;2022-10-31T05:57:56;13.80;1.00
47384;DHT22;33129;52.232;5.192;2022-10-31T06:00:24;13.70;1.00
47384;DHT22;33129;52.232;5.192;2022-10-31T06:02:58;13.60;1.00
47384;DHT22;33129;52.232;5.192;2022-10-31T06:05:24;13.80;1.00
47384;DHT22;33129;52.232;5.192;2022-10-31T06:07:50;13.80;1.00
47384;DHT22;33129;52.232;5.192;2022-10-31T06:10:16;13.80;1.00
47384;DHT22;33129;52.232;5.192;2022-10-31T06:12:42;13.80;1.00
47384;DHT22;33129;52.232;5.192;2022-10-31T06:15:08;14.00;1.00
47384;DHT22;33129;52.232;5.192;2022-10-31T06:17:35;13.70;1.00
47384;DHT22;33129;52.232;5.192;2022-10-31T06:20:01;14.00;1.00
47384;DHT22;33129;52.232;5.192;2022-10-31T06:22:28;14.10;1.00
47384;DHT22;33129;52.232;5.192;2022-10-31T06:24:54;13.80;1.00
47384;DHT22;33129;52.232;5.192;2022-10-31T06:27:20;13.80;1.00
47384;DHT22;33129;52.232;5.192;2022-10-31T06:29:46;13.80;1.00
47384;DHT22;33129;52.232;5.192;2022-10-31T06:32:12;14.00;1.00
47384;DHT22;33129;52.232;5.192;2022-10-31T06:34:39;13.80;1.00
47384;DHT22;33129;52.232;5.192;2022-10-31T06:37:06;13.60;1.00
47384;DHT22;33129;52.232;5.192;2022-10-31T06:39:33;13.80;1.00
47384;DHT22;33129;52.232;5.192;2022-10-31T06:41:59;14.00;1.00
47384;DHT22;33129;52.232;5.192;2022-10-31T06:44:24;13.80;1.00
47384;DHT22;33129;52.232;5.192;2022-10-31T06:46:50;13.50;1.00
47384;DHT22;33129;52.232;5.192;2022-10-31T06:49:16;14.10;1.00
47384;DHT22;33129;52.232;5.192;2022-10-31T06:51:42;13.80;1.00
47384;DHT22;33129;52.232;5.192;2022-10-31T06:54:08;13.90;1.00
47384;DHT22;33129;52.232;5.192;2022-10-31T06:56:34;14.00;1.00
47384;DHT22;33129;52.232;5.192;2022-10-31T06:59:00;14.00;1.00
47384;DHT22;33129;52.232;5.192;2022-10-31T07:01:26;13.80;1.00
47384;DHT22;33129;52.232;5.192;2022-10-31T07:03:52;13.90;1.00
47384;DHT22;33129;52.232;5.192;2022-10-31T07:06:18;13.60;1.00
47384;DHT22;33129;52.232;5.192;2022-10-31T07:08:43;13.90;1.00
47384;DHT22;33129;52.232;5.192;2022-10-31T07:11:09;13.90;1.00
47384;DHT22;33129;52.232;5.192;2022-10-31T07:13:35;13.70;1.00
47384;DHT22;33129;52.232;5.192;2022-10-31T07:16:04;14.20;1.00
47384;DHT22;33129;52.232;5.192;2022-10-31T07:18:32;14.00;1.00
47384;DHT22;33129;52.232;5.192;2022-10-31T07:20:59;14.10;1.00
47384;DHT22;33129;52.232;5.192;2022-10-31T07:23:25;14.00;1.00
47384;DHT22;33129;52.232;5.192;2022-10-31T07:25:58;14.30;1.00
47384;DHT22;33129;52.232;5.192;2022-10-31T07:28:25;13.90;1.00
47384;DHT22;33129;52.232;5.192;2022-10-31T07:30:53;14.00;1.00
47384;DHT22;33129;52.232;5.192;2022-10-31T07:33:20;14.10;1.00
47384;DHT22;33129;52.232;5.192;2022-10-31T07:35:46;14.50;1.00
47384;DHT22;33129;52.232;5.192;2022-10-31T07:38:14;14.40;1.00
47384;DHT22;33129;52.232;5.192;2022-10-31T07:40:41;14.50;1.00
47384;DHT22;33129;52.232;5.192;2022-10-31T07:43:10;14.60;1.00
47384;DHT22;33129;52.232;5.192;2022-10-31T07:45:37;14.50;1.00
47384;DHT22;33129;52.232;5.192;2022-10-31T07:48:04;14.60;1.00
47384;DHT22;33129;52.232;5.192;2022-10-31T07:50:31;14.70;1.00
47384;DHT22;33129;52.232;5.192;2022-10-31T07:53:06;14.80;1.00
47384;DHT22;33129;52.232;5.192;2022-10-31T07:55:36;14.80;1.00
47384;DHT22;33129;52.232;5.192;2022-10-31T07:58:07;15.00;1.00
47384;DHT22;33129;52.232;5.192;2022-10-31T08:00:38;15.30;1.00
47384;DHT22;33129;52.232;5.192;2022-10-31T08:03:08;15.20;1.00
47384;DHT22;33129;52.232;5.192;2022-10-31T08:05:35;14.90;1.00
47384;DHT22;33129;52.232;5.192;2022-10-31T08:08:03;15.30;1.00
47384;DHT22;33129;52.232;5.192;2022-10-31T08:10:31;15.60;1.00
47384;DHT22;33129;52.232;5.192;2022-10-31T08:12:57;15.30;1.00
47384;DHT22;33129;52.232;5.192;2022-10-31T08:15:24;15.70;1.00
47384;DHT22;33129;52.232;5.192;2022-10-31T08:17:51;15.70;1.00
47384;DHT22;33129;52.232;5.192;2022-10-31T08:20:17;16.10;1.00
47384;DHT22;33129;52.232;5.192;2022-10-31T08:22:43;16.60;1.00
47384;DHT22;33129;52.232;5.192;2022-10-31T08:25:08;16.60;1.00
47384;DHT22;33129;52.232;5.192;2022-10-31T08:27:34;17.00;1.00
47384;DHT22;33129;52.232;5.192;2022-10-31T08:30:00;16.90;1.00
47384;DHT22;33129;52.232;5.192;2022-10-31T08:32:26;16.60;1.00
47384;DHT22;33129;52.232;5.192;2022-10-31T08:34:52;16.80;1.00
47384;DHT22;33129;52.232;5.192;2022-10-31T08:37:18;16.70;1.00
47384;DHT22;33129;52.232;5.192;2022-10-31T08:39:46;17.20;1.00
47384;DHT22;33129;52.232;5.192;2022-10-31T08:42:12;16.80;1.00
47384;DHT22;33129;52.232;5.192;2022-10-31T08:44:38;17.10;1.00
47384;DHT22;33129;52.232;5.192;2022-10-31T08:47:04;17.20;1.00
47384;DHT22;33129;52.232;5.192;2022-10-31T08:49:30;17.40;1.00
47384;DHT22;33129;52.232;5.192;2022-10-31T08:51:56;17.30;1.00
47384;DHT22;33129;52.232;5.192;2022-10-31T08:54:22;17.40;1.00
47384;DHT22;33129;52.232;5.192;2022-10-31T08:56:47;17.50;1.00
47384;DHT22;33129;52.232;5.192;2022-10-31T08:59:13;18.80;1.00
47384;DHT22;33129;52.232;5.192;2022-10-31T09:01:39;19.40;1.00
47384;DHT22;33129;52.232;5.192;2022-10-31T09:04:05;20.00;1.00
47384;DHT22;33129;52.232;5.192;2022-10-31T09:06:31;19.40;1.00
47384;DHT22;33129;52.232;5.192;2022-10-31T09:08:56;19.40;1.00
47384;DHT22;33129;52.232;5.192;2022-10-31T09:11:23;18.90;1.00
47384;DHT22;33129;52.232;5.192;2022-10-31T09:13:49;19.00;1.00
47384;DHT22;33129;52.232;5.192;2022-10-31T09:16:15;19.10;1.00
47384;DHT22;33129;52.232;5.192;2022-10-31T09:18:40;19.40;1.00
47384;DHT22;33129;52.232;5.192;2022-10-31T09:21:07;19.60;1.00
47384;DHT22;33129;52.232;5.192;2022-10-31T09:23:33;19.60;1.00
47384;DHT22;33129;52.232;5.192;2022-10-31T09:26:00;19.40;1.00
47384;DHT22;33129;52.232;5.192;2022-10-31T09:28:26;19.10;1.00
47384;DHT22;33129;52.232;5.192;2022-10-31T09:30:53;18.80;1.00
47384;DHT22;33129;52.232;5.192;2022-10-31T09:33:19;18.80;1.00
47384;DHT22;33129;52.232;5.192;2022-10-31T09:35:46;18.20;1.00
47384;DHT22;33129;52.232;5.192;2022-10-31T09:38:14;18.60;1.00
47384;DHT22;33129;52.232;5.192;2022-10-31T09:43:58;18.40;1.00
47384;DHT22;33129;52.232;5.192;2022-10-31T09:46:55;18.30;1.00
47384;DHT22;33129;52.232;5.192;2022-10-31T09:50:12;18.30;1.00
47384;DHT22;33129;52.232;5.192;2022-10-31T09:53:17;18.20;1.00
47384;DHT22;33129;52.232;5.192;2022-10-31T09:55:50;18.20;1.00
47384;DHT22;33129;52.232;5.192;2022-10-31T09:58:19;18.40;1.00
47384;DHT22;33129;52.232;5.192;2022-10-31T10:00:47;18.00;1.00
47384;DHT22;33129;52.232;5.192;2022-10-31T10:09:07;18.30;1.00
47384;DHT22;33129;52.232;5.192;2022-10-31T10:30:42;18.20;1.00
47384;DHT22;33129;52.232;5.192;2022-10-31T10:33:20;18.10;1.00
47384;DHT22;33129;52.232;5.192;2022-10-31T10:35:59;18.10;1.00
47384;DHT22;33129;52.232;5.192;2022-10-31T10:38:39;17.90;1.00
47384;DHT22;33129;52.232;5.192;2022-10-31T10:41:22;17.60;1.00
47384;DHT22;33129;52.232;5.192;2022-10-31T10:43:49;17.70;1.00
47384;DHT22;33129;52.232;5.192;2022-10-31T10:47:13;17.80;1.00
47384;DHT22;33129;52.232;5.192;2022-10-31T10:49:52;17.70;1.00
47384;DHT22;33129;52.232;5.192;2022-10-31T10:52:40;18.00;1.00
47384;DHT22;33129;52.232;5.192;2022-10-31T10:58:03;18.70;1.00
47384;DHT22;33129;52.232;5.192;2022-10-31T11:00:51;18.30;1.00
47384;DHT22;33129;52.232;5.192;2022-10-31T11:03:18;18.00;1.00
47384;DHT22;33129;52.232;5.192;2022-10-31T11:05:51;18.50;1.00
47384;DHT22;33129;52.232;5.192;2022-10-31T11:08:33;18.70;1.00
47384;DHT22;33129;52.232;5.192;2022-10-31T11:14:05;18.60;1.00
47384;DHT22;33129;52.232;5.192;2022-10-31T11:16:38;18.50;1.00
47384;DHT22;33129;52.232;5.192;2022-10-31T11:21:40;18.00;1.00
47384;DHT22;33129;52.232;5.192;2022-10-31T11:26:36;18.20;1.00
47384;DHT22;33129;52.232;5.192;2022-10-31T11:29:04;17.90;1.00
47384;DHT22;33129;52.232;5.192;2022-10-31T11:31:34;18.30;1.00
47384;DHT22;33129;52.232;5.192;2022-10-31T11:34:03;18.20;1.00
47384;DHT22;33129;52.232;5.192;2022-10-31T11:36:33;18.50;1.00
47384;DHT22;33129;52.232;5.192;2022-10-31T11:39:02;18.10;1.00
47384;DHT22;33129;52.232;5.192;2022-10-31T11:41:34;18.40;1.00
47384;DHT22;33129;52.232;5.192;2022-10-31T11:44:12;18.30;1.00
47384;DHT22;33129;52.232;5.192;2022-10-31T11:46:51;18.40;1.00
47384;DHT22;33129;52.232;5.192;2022-10-31T11:52:04;18.70;1.00
47384;DHT22;33129;52.232;5.192;2022-10-31T11:54:45;18.60;1.00
47384;DHT22;33129;52.232;5.192;2022-10-31T12:00:03;18.50;1.00
47384;DHT22;33129;52.232;5.192;2022-10-31T12:02:31;18.90;1.00
47384;DHT22;33129;52.232;5.192;2022-10-31T12:05:17;18.30;1.00
47384;DHT22;33129;52.232;5.192;2022-10-31T12:07:48;18.80;1.00
47384;DHT22;33129;52.232;5.192;2022-10-31T12:10:14;18.80;1.00
47384;DHT22;33129;52.232;5.192;2022-10-31T12:13:41;19.00;1.00
47384;DHT22;33129;52.232;5.192;2022-10-31T12:16:12;19.10;1.00
47384;DHT22;33129;52.232;5.192;2022-10-31T12:18:48;18.80;1.00
47384;DHT22;33129;52.232;5.192;2022-10-31T12:21:37;18.90;1.00
47384;DHT22;33129;52.232;5.192;2022-10-31T12:32:57;18.80;1.00
47384;DHT22;33129;52.232;5.192;2022-10-31T12:35:44;18.90;1.00
47384;DHT22;33129;52.232;5.192;2022-10-31T12:38:52;18.80;1.00
47384;DHT22;33129;52.232;5.192;2022-10-31T12:41:51;18.60;1.00
47384;DHT22;33129;52.232;5.192;2022-10-31T12:45:25;18.70;1.00
47384;DHT22;33129;52.232;5.192;2022-10-31T12:47:55;18.40;1.00
47384;DHT22;33129;52.232;5.192;2022-10-31T12:53:35;18.70;1.00
47384;DHT22;33129;52.232;5.192;2022-10-31T12:59:06;18.70;1.00
47384;DHT22;33129;52.232;5.192;2022-10-31T13:04:17;18.80;1.00
47384;DHT22;33129;52.232;5.192;2022-10-31T13:07:01;18.50;1.00
47384;DHT22;33129;52.232;5.192;2022-10-31T13:09:41;19.00;1.00
47384;DHT22;33129;52.232;5.192;2022-10-31T13:12:15;19.00;1.00
47384;DHT22;33129;52.232;5.192;2022-10-31T13:14:51;19.10;1.00
47384;DHT22;33129;52.232;5.192;2022-10-31T13:20:27;19.10;1.00
47384;DHT22;33129;52.232;5.192;2022-10-31T13:23:05;18.90;1.00
47384;DHT22;33129;52.232;5.192;2022-10-31T13:25:39;18.90;1.00
47384;DHT22;33129;52.232;5.192;2022-10-31T13:28:23;19.10;1.00
47384;DHT22;33129;52.232;5.192;2022-10-31T13:30:54;18.90;1.00
47384;DHT22;33129;52.232;5.192;2022-10-31T13:33:25;18.80;1.00
47384;DHT22;33129;52.232;5.192;2022-10-31T13:44:27;18.70;1.00
47384;DHT22;33129;52.232;5.192;2022-10-31T13:46:56;18.90;1.00
47384;DHT22;33129;52.232;5.192;2022-10-31T13:49:37;18.90;1.00
47384;DHT22;33129;52.232;5.192;2022-10-31T13:54:46;19.00;1.00
47384;DHT22;33129;52.232;5.192;2022-10-31T14:02:48;18.60;1.00
47384;DHT22;33129;52.232;5.192;2022-10-31T14:05:31;18.60;1.00
47384;DHT22;33129;52.232;5.192;2022-10-31T14:08:03;18.80;1.00
47384;DHT22;33129;52.232;5.192;2022-10-31T14:10:36;18.50;1.00
47384;DHT22;33129;52.232;5.192;2022-10-31T14:13:29;18.40;1.00
47384;DHT22;33129;52.232;5.192;2022-10-31T14:16:00;18.60;1.00
47384;DHT22;33129;52.232;5.192;2022-10-31T14:18:35;18.80;1.00
47384;DHT22;33129;52.232;5.192;2022-10-31T14:21:15;18.80;1.00
47384;DHT22;33129;52.232;5.192;2022-10-31T14:24:34;18.80;1.00
47384;DHT22;33129;52.232;5.192;2022-10-31T14:29:46;18.90;1.00
47384;DHT22;33129;52.232;5.192;2022-10-31T14:34:41;18.70;1.00
47384;DHT22;33129;52.232;5.192;2022-10-31T14:49:15;18.80;1.00
47384;DHT22;33129;52.232;5.192;2022-10-31T14:51:47;18.70;1.00
47384;DHT22;33129;52.232;5.192;2022-10-31T14:54:32;18.80;1.00
47384;DHT22;33129;52.232;5.192;2022-10-31T14:57:05;18.70;1.00
47384;DHT22;33129;52.232;5.192;2022-10-31T14:59:48;18.80;1.00
47384;DHT22;33129;52.232;5.192;2022-10-31T15:02:21;18.60;1.00
47384;DHT22;33129;52.232;5.192;2022-10-31T15:05:16;18.30;1.00
47384;DHT22;33129;52.232;5.192;2022-10-31T15:07:54;18.50;1.00
47384;DHT22;33129;52.232;5.192;2022-10-31T15:10:28;18.30;1.00
47384;DHT22;33129;52.232;5.192;2022-10-31T15:13:09;18.50;1.00
47384;DHT22;33129;52.232;5.192;2022-10-31T15:15:37;18.80;1.00
47384;DHT22;33129;52.232;5.192;2022-10-31T15:18:04;18.60;1.00
47384;DHT22;33129;52.232;5.192;2022-10-31T15:20:38;18.80;1.00
47384;DHT22;33129;52.232;5.192;2022-10-31T15:23:21;18.10;1.00
47384;DHT22;33129;52.232;5.192;2022-10-31T15:25:48;18.70;1.00
47384;DHT22;33129;52.232;5.192;2022-10-31T15:28:21;18.10;1.00
47384;DHT22;33129;52.232;5.192;2022-10-31T15:30:56;18.60;1.00
47384;DHT22;33129;52.232;5.192;2022-10-31T15:33:30;18.30;1.00
47384;DHT22;33129;52.232;5.192;2022-10-31T15:36:02;18.20;1.00
47384;DHT22;33129;52.232;5.192;2022-10-31T15:38:28;18.10;1.00
47384;DHT22;33129;52.232;5.192;2022-10-31T15:43:23;18.40;1.00
47384;DHT22;33129;52.232;5.192;2022-10-31T15:45:49;18.10;1.00
47384;DHT22;33129;52.232;5.192;2022-10-31T15:48:18;18.40;1.00
47384;DHT22;33129;52.232;5.192;2022-10-31T15:50:50;17.80;1.00
47384;DHT22;33129;52.232;5.192;2022-10-31T15:56:19;18.20;1.00
47384;DHT22;33129;52.232;5.192;2022-10-31T15:58:49;17.90;1.00
47384;DHT22;33129;52.232;5.192;2022-10-31T16:01:31;17.70;1.00
47384;DHT22;33129;52.232;5.192;2022-10-31T16:04:05;18.30;1.00
47384;DHT22;33129;52.232;5.192;2022-10-31T16:07:01;18.30;1.00
47384;DHT22;33129;52.232;5.192;2022-10-31T16:09:28;18.30;1.00
47384;DHT22;33129;52.232;5.192;2022-10-31T16:11:56;17.80;1.00
47384;DHT22;33129;52.232;5.192;2022-10-31T16:14:27;18.40;1.00
47384;DHT22;33129;52.232;5.192;2022-10-31T16:16:56;17.90;1.00
47384;DHT22;33129;52.232;5.192;2022-10-31T16:19:34;17.50;1.00
47384;DHT22;33129;52.232;5.192;2022-10-31T16:22:06;18.30;1.00
47384;DHT22;33129;52.232;5.192;2022-10-31T16:24:46;17.90;1.00
47384;DHT22;33129;52.232;5.192;2022-10-31T16:27:19;18.10;1.00
47384;DHT22;33129;52.232;5.192;2022-10-31T16:29:51;18.10;1.00
47384;DHT22;33129;52.232;5.192;2022-10-31T16:32:51;18.00;1.00
47384;DHT22;33129;52.232;5.192;2022-10-31T16:35:37;17.90;1.00
47384;DHT22;33129;52.232;5.192;2022-10-31T16:38:04;18.00;1.00
47384;DHT22;33129;52.232;5.192;2022-10-31T16:40:31;17.80;1.00
47384;DHT22;33129;52.232;5.192;2022-10-31T16:42:58;17.90;1.00
47384;DHT22;33129;52.232;5.192;2022-10-31T16:45:27;17.60;1.00
47384;DHT22;33129;52.232;5.192;2022-10-31T16:48:06;17.80;1.00
47384;DHT22;33129;52.232;5.192;2022-10-31T16:50:37;17.40;1.00
47384;DHT22;33129;52.232;5.192;2022-10-31T16:53:03;17.70;1.00
47384;DHT22;33129;52.232;5.192;2022-10-31T16:55:29;17.60;1.00
47384;DHT22;33129;52.232;5.192;2022-10-31T16:57:57;17.70;1.00
47384;DHT22;33129;52.232;5.192;2022-10-31T17:00:25;17.50;1.00
47384;DHT22;33129;52.232;5.192;2022-10-31T17:02:54;17.60;1.00
47384;DHT22;33129;52.232;5.192;2022-10-31T17:05:24;17.30;1.00
47384;DHT22;33129;52.232;5.192;2022-10-31T17:07:57;17.40;1.00
47384;DHT22;33129;52.232;5.192;2022-10-31T17:10:24;17.60;1.00
47384;DHT22;33129;52.232;5.192;2022-10-31T17:12:51;17.60;1.00
47384;DHT22;33129;52.232;5.192;2022-10-31T17:15:26;17.60;1.00
47384;DHT22;33129;52.232;5.192;2022-10-31T17:17:53;17.40;1.00
47384;DHT22;33129;52.232;5.192;2022-10-31T17:22:45;17.50;1.00
47384;DHT22;33129;52.232;5.192;2022-10-31T17:25:16;17.10;1.00
47384;DHT22;33129;52.232;5.192;2022-10-31T17:27:44;17.80;1.00
47384;DHT22;33129;52.232;5.192;2022-10-31T17:30:12;17.50;1.00
47384;DHT22;33129;52.232;5.192;2022-10-31T17:32:39;17.50;1.00
47384;DHT22;33129;52.232;5.192;2022-10-31T17:35:06;17.20;1.00
47384;DHT22;33129;52.232;5.192;2022-10-31T17:37:33;17.70;1.00
47384;DHT22;33129;52.232;5.192;2022-10-31T17:39:59;17.50;1.00
47384;DHT22;33129;52.232;5.192;2022-10-31T17:42:25;17.50;1.00
47384;DHT22;33129;52.232;5.192;2022-10-31T17:44:50;17.20;1.00
47384;DHT22;33129;52.232;5.192;2022-10-31T17:47:16;17.40;1.00
47384;DHT22;33129;52.232;5.192;2022-10-31T17:49:42;17.30;1.00
47384;DHT22;33129;52.232;5.192;2022-10-31T17:52:07;17.20;1.00
47384;DHT22;33129;52.232;5.192;2022-10-31T17:54:34;17.20;1.00
47384;DHT22;33129;52.232;5.192;2022-10-31T17:56:59;17.30;1.00
47384;DHT22;33129;52.232;5.192;2022-10-31T17:59:25;17.50;1.00
47384;DHT22;33129;52.232;5.192;2022-10-31T18:01:55;17.10;1.00
47384;DHT22;33129;52.232;5.192;2022-10-31T18:04:22;17.10;1.00
47384;DHT22;33129;52.232;5.192;2022-10-31T18:06:47;17.20;1.00
47384;DHT22;33129;52.232;5.192;2022-10-31T18:09:16;17.30;1.00
47384;DHT22;33129;52.232;5.192;2022-10-31T18:11:42;17.10;1.00
47384;DHT22;33129;52.232;5.192;2022-10-31T18:14:09;17.10;1.00
47384;DHT22;33129;52.232;5.192;2022-10-31T18:16:35;16.80;1.00